createdAt,value
2022-08-25T00:04:53.702Z,72.91
2022-08-25T00:10:14.761Z,72.90
2022-08-25T00:15:36.084Z,72.63
2022-08-25T00:20:57.081Z,72.65
2022-08-25T00:26:18.067Z,72.40
2022-08-25T00:31:39.878Z,72.35
2022-08-25T00:37:01.974Z,72.40
2022-08-25T00:42:23.923Z,72.68
2022-08-25T00:47:44.629Z,72.55
2022-08-25T00:53:07.189Z,72.62
2022-08-25T00:58:31.178Z,72.59
2022-08-25T01:03:52.128Z,72.65
2022-08-25T01:09:14.109Z,72.35
2022-08-25T01:14:37.001Z,72.53
2022-08-25T01:19:57.696Z,72.61
2022-08-25T01:25:47.817Z,72.47
2022-08-25T01:31:23.738Z,72.33
2022-08-25T01:36:45.551Z,72.25
2022-08-25T01:42:12.734Z,72.57
2022-08-25T01:47:33.725Z,72.59
2022-08-25T01:53:09.382Z,72.27
2022-08-25T01:58:36.215Z,72.08
2022-08-25T02:03:58.445Z,72.61
2022-08-25T02:09:19.631Z,72.63
2022-08-25T02:14:40.755Z,72.83
2022-08-25T02:20:08.275Z,72.59
2022-08-25T02:25:28.866Z,72.58
2022-08-25T02:30:49.985Z,72.76
2022-08-25T02:36:10.777Z,73.28
2022-08-25T02:41:33.544Z,73.51
2022-08-25T02:46:54.031Z,73.37
2022-08-25T02:52:15.564Z,73.40
2022-08-25T02:57:36.639Z,73.83
2022-08-25T03:02:57.613Z,73.50
2022-08-25T03:08:18.739Z,73.74
2022-08-25T03:13:39.839Z,73.61
2022-08-25T03:19:00.551Z,73.48
2022-08-25T03:24:21.160Z,73.15
2022-08-25T03:29:43.082Z,72.80
2022-08-25T03:35:05.076Z,72.61
2022-08-25T03:40:26.530Z,72.69
2022-08-25T03:45:48.134Z,72.57
2022-08-25T03:51:09.161Z,72.46
2022-08-25T03:56:30.860Z,72.43
2022-08-25T04:01:55.258Z,72.51
2022-08-25T04:07:16.710Z,72.27
2022-08-25T04:12:38.195Z,72.35
2022-08-25T04:17:59.220Z,72.06
2022-08-25T04:23:20.543Z,72.12
2022-08-25T04:28:42.295Z,72.34
2022-08-25T04:34:04.513Z,72.06
2022-08-25T04:39:45.377Z,72.04
2022-08-25T04:45:06.680Z,72.17
2022-08-25T04:50:27.503Z,72.62
2022-08-25T04:55:48.986Z,72.85
2022-08-25T05:01:12.634Z,72.79
2022-08-25T05:06:34.715Z,72.84
2022-08-25T05:11:55.570Z,72.91
2022-08-25T05:17:16.219Z,72.82
2022-08-25T05:22:37.323Z,72.98
2022-08-25T05:27:58.026Z,73.25
2022-08-25T05:33:20.267Z,73.43
2022-08-25T05:38:41.948Z,73.97
2022-08-25T05:44:02.928Z,73.48
2022-08-25T05:49:23.842Z,73.65
2022-08-25T05:54:44.577Z,74.08
2022-08-25T06:00:07.003Z,74.10
2022-08-25T06:05:32.800Z,74.35
2022-08-25T06:10:53.611Z,74.66
2022-08-25T06:16:14.261Z,74.26
2022-08-25T06:21:35.332Z,74.52
2022-08-25T06:26:57.039Z,74.66
2022-08-25T06:32:17.927Z,74.57
2022-08-25T06:37:39.046Z,75.04
2022-08-25T06:42:59.969Z,74.76
2022-08-25T06:48:20.624Z,75.04
2022-08-25T06:53:41.718Z,74.40
2022-08-25T06:59:04.542Z,74.36
2022-08-25T07:04:25.762Z,73.80
2022-08-25T07:09:47.092Z,73.43
2022-08-25T07:15:19.762Z,73.42
2022-08-25T07:20:41.103Z,73.87
2022-08-25T07:26:36.906Z,73.08
2022-08-25T07:31:58.613Z,73.09
2022-08-25T07:37:38.385Z,73.42
2022-08-25T07:43:06.356Z,73.00
2022-08-25T07:48:28.411Z,73.00
2022-08-25T07:53:48.953Z,73.34
2022-08-25T07:59:12.554Z,73.54
2022-08-25T08:04:36.761Z,73.59
2022-08-25T08:10:32.852Z,73.32
2022-08-25T08:15:43.200Z,73.25
2022-08-25T08:21:05.486Z,72.71
2022-08-25T08:26:48.224Z,72.73
2022-08-25T08:32:13.394Z,72.63
2022-08-25T08:37:35.102Z,72.31
2022-08-25T08:43:18.827Z,72.46
2022-08-25T08:48:52.000Z,72.04
2022-08-25T08:54:25.213Z,71.43
2022-08-25T08:59:56.652Z,71.77
2022-08-25T09:05:23.035Z,71.72
2022-08-25T09:10:59.247Z,71.28
2022-08-25T09:16:54.771Z,71.34
2022-08-25T09:22:35.927Z,71.42
2022-08-25T09:28:21.483Z,71.10
2022-08-25T09:33:42.426Z,71.27
2022-08-25T09:39:03.854Z,71.11
2022-08-25T09:44:33.092Z,71.08
2022-08-25T09:50:05.369Z,70.99
2022-08-25T09:55:32.630Z,70.67
2022-08-25T10:01:22.438Z,71.08
2022-08-25T10:06:45.356Z,70.57
2022-08-25T10:12:19.027Z,70.26
2022-08-25T10:17:42.002Z,69.98
2022-08-25T10:23:14.474Z,70.20
2022-08-25T10:28:54.600Z,70.64
2022-08-25T10:34:35.849Z,69.96
2022-08-25T10:40:09.886Z,70.22
2022-08-25T10:45:46.347Z,70.33
2022-08-25T10:51:28.610Z,69.89
2022-08-25T10:57:17.366Z,70.03
2022-08-25T11:02:47.361Z,70.07
2022-08-25T11:08:23.473Z,69.91
2022-08-25T11:13:53.296Z,69.13
2022-08-25T11:19:33.782Z,69.32
2022-08-25T11:25:12.831Z,69.55
2022-08-25T11:30:35.140Z,68.41
2022-08-25T11:36:00.975Z,69.20
2022-08-25T11:41:27.271Z,68.94
2022-08-25T11:46:51.297Z,68.35
2022-08-25T11:52:34.751Z,68.51
2022-08-25T11:58:27.468Z,68.14
2022-08-25T12:03:51.439Z,67.57
2022-08-25T12:09:13.325Z,67.38
2022-08-25T12:14:42.602Z,67.63
2022-08-25T12:20:03.997Z,66.27
2022-08-25T12:25:36.894Z,66.69
2022-08-25T12:31:06.316Z,66.65
2022-08-25T12:36:31.541Z,67.16
2022-08-25T12:41:58.599Z,66.49
2022-08-25T12:47:28.277Z,66.43
2022-08-25T12:52:49.544Z,66.77
2022-08-25T12:58:12.169Z,66.50
2022-08-25T13:09:36.059Z,66.33
2022-08-25T13:14:59.558Z,66.15
2022-08-25T13:20:27.313Z,66.10
2022-08-25T13:25:51.096Z,66.34
2022-08-25T13:31:18.585Z,65.86
2022-08-25T13:37:03.767Z,65.75
2022-08-25T13:42:28.808Z,65.99
2022-08-25T13:47:55.976Z,65.96
2022-08-25T13:53:23.936Z,66.10
2022-08-25T13:58:46.441Z,65.51
2022-08-25T14:04:25.597Z,64.95
2022-08-25T14:10:01.786Z,64.89
2022-08-25T14:15:22.383Z,65.29
2022-08-25T14:20:47.343Z,65.00
2022-08-25T14:26:08.334Z,64.58
2022-08-25T14:31:33.411Z,64.54
2022-08-25T14:36:54.602Z,64.82
2022-08-25T14:42:16.812Z,64.52
2022-08-25T14:47:38.479Z,64.31
2022-08-25T14:53:00.178Z,64.32
2022-08-25T14:58:25.740Z,64.55
2022-08-25T15:03:52.561Z,65.05
2022-08-25T15:09:16.543Z,64.74
2022-08-25T15:14:40.540Z,64.76
2022-08-25T15:20:01.584Z,64.64
2022-08-25T15:25:27.174Z,64.27
2022-08-25T15:30:48.034Z,64.46
2022-08-25T15:36:15.341Z,64.21
2022-08-25T15:41:37.590Z,63.99
2022-08-25T15:46:59.533Z,64.00
2022-08-25T15:52:21.105Z,63.81
2022-08-25T15:57:42.297Z,63.82
2022-08-25T16:03:04.329Z,63.44
2022-08-25T16:08:27.966Z,63.14
2022-08-25T16:13:49.048Z,63.53
2022-08-25T16:19:11.294Z,63.39
2022-08-25T16:24:32.041Z,63.63
2022-08-25T16:29:59.717Z,63.40
2022-08-25T16:35:20.723Z,63.24
2022-08-25T16:40:43.304Z,63.51
2022-08-25T16:46:07.300Z,63.22
2022-08-25T16:51:29.553Z,63.40
2022-08-25T16:56:55.182Z,63.74
2022-08-25T17:02:16.584Z,63.40
2022-08-25T17:07:39.433Z,63.49
2022-08-25T17:13:00.274Z,64.14
2022-08-25T17:18:21.295Z,64.25
2022-08-25T17:23:43.581Z,64.52
2022-08-25T17:29:05.825Z,64.87
2022-08-25T17:34:28.594Z,64.99
2022-08-25T17:39:50.079Z,65.38
2022-08-25T17:45:14.989Z,65.46
2022-08-25T17:50:36.899Z,65.13
2022-08-25T17:56:06.832Z,65.13
2022-08-25T18:01:31.228Z,65.43
2022-08-25T18:06:52.006Z,65.62
2022-08-25T18:12:12.707Z,65.89
2022-08-25T18:17:34.303Z,66.06
2022-08-25T18:22:57.710Z,66.27
2022-08-25T18:28:19.801Z,66.31
2022-08-25T18:33:44.881Z,66.29
2022-08-25T18:39:25.162Z,66.33
2022-08-25T18:44:46.807Z,66.56
2022-08-25T18:50:08.208Z,67.04
2022-08-25T18:55:29.503Z,66.88
2022-08-25T19:00:51.183Z,66.76
2022-08-25T19:06:12.011Z,66.67
2022-08-25T19:11:32.859Z,66.78
2022-08-25T19:16:54.739Z,66.96
2022-08-25T19:22:38.499Z,66.95
2022-08-25T19:28:00.055Z,67.30
2022-08-25T19:33:42.521Z,67.13
2022-08-25T19:39:02.194Z,67.33
2022-08-25T19:44:23.622Z,67.39
2022-08-25T19:49:44.610Z,67.40
2022-08-25T19:55:06.601Z,67.78
2022-08-25T20:00:32.623Z,67.87
2022-08-25T20:05:56.493Z,67.76
2022-08-25T20:11:17.863Z,67.80
2022-08-25T20:16:39.930Z,68.19
2022-08-25T20:22:01.175Z,68.35
2022-08-25T20:27:33.043Z,68.13
2022-08-25T20:32:55.673Z,68.18
2022-08-25T20:38:16.596Z,68.71
2022-08-25T20:43:38.352Z,68.15
2022-08-25T20:49:00.952Z,68.44
2022-08-25T20:54:26.305Z,68.60
2022-08-25T20:59:47.656Z,68.63
2022-08-25T21:05:10.225Z,68.62
2022-08-25T21:10:31.440Z,68.40
2022-08-25T21:15:52.271Z,68.91
2022-08-25T21:21:15.243Z,68.98
2022-08-25T21:26:48.918Z,68.98
2022-08-25T21:32:10.055Z,68.92
2022-08-25T21:37:30.767Z,68.80
2022-08-25T21:42:52.702Z,68.68
2022-08-25T21:48:13.482Z,69.02
2022-08-25T21:53:35.315Z,69.06
2022-08-25T21:58:55.963Z,69.20
2022-08-25T22:04:16.615Z,68.91
2022-08-25T22:09:37.380Z,69.16
2022-08-25T22:14:59.420Z,68.45
2022-08-25T22:20:20.714Z,68.69
2022-08-25T22:25:41.624Z,69.09
2022-08-25T22:31:04.870Z,69.07
2022-08-25T22:36:31.455Z,68.83
2022-08-25T22:41:52.407Z,69.07
2022-08-25T22:47:13.342Z,68.92
2022-08-25T22:52:34.821Z,69.38
2022-08-25T22:57:56.005Z,68.96
2022-08-25T23:03:17.039Z,69.04
2022-08-25T23:08:40.980Z,69.32
2022-08-25T23:14:02.360Z,68.97
2022-08-25T23:19:23.043Z,69.46
2022-08-25T23:24:53.475Z,69.27
2022-08-25T23:30:15.053Z,68.86
2022-08-25T23:35:35.571Z,69.11
2022-08-25T23:40:56.793Z,68.96
2022-08-25T23:46:20.392Z,68.79
2022-08-25T23:51:41.366Z,68.80
2022-08-25T23:57:02.498Z,68.99
